Time;durP1;ratioP1;P1;durP2;ratioP2;P2;SDS_P1;SDS_P2;PMS_P1;PMS_P2;Temp;Humidity;BMP_temperature;BMP_pressure;BME280_temperature;BME280_humidity;BME280_pressure;Samples;Min_cycle;Max_cycle;Signal;HPM_P1;HPM_P2
2022/07/25 00:00:40;;;;;;;10.07;6.45;;;21.40;99.90;;;;;;6136513;23;20008;-81
2022/07/25 00:03:06;;;;;;;;;;;21.40;99.90;;;;;;6137303;23;20009;-81
2022/07/25 00:05:31;;;;;;;7.57;5.68;;;21.30;99.90;;;;;;6136761;23;19908;-81
2022/07/25 00:07:57;;;;;;;;;;;21.40;99.90;;;;;;6137279;23;20328;-80
2022/07/25 00:10:23;;;;;;;8.35;5.80;;;21.30;99.90;;;;;;6136124;23;19908;-81
2022/07/25 00:12:49;;;;;;;8.60;6.00;;;21.30;99.90;;;;;;6137017;23;20055;-80
2022/07/25 00:15:15;;;;;;;10.73;6.03;;;21.30;99.90;;;;;;6136931;23;20373;-81
2022/07/25 00:17:41;;;;;;;10.35;5.90;;;21.30;99.90;;;;;;6136920;23;20009;-81
2022/07/25 00:20:07;;;;;;;;;;;21.30;99.90;;;;;;6139304;23;20009;-81
2022/07/25 00:22:36;;;;;;;8.37;6.23;;;21.30;99.90;;;;;;6141769;23;19908;-81
2022/07/25 00:25:02;;;;;;;7.63;5.50;;;21.30;99.90;;;;;;6166101;23;20013;-81
2022/07/25 00:27:27;;;;;;;9.32;5.78;;;21.30;99.90;;;;;;6136627;23;20064;-82
2022/07/25 00:29:53;;;;;;;10.15;5.78;;;21.30;99.90;;;;;;6136255;23;20378;-81
2022/07/25 00:32:19;;;;;;;7.07;5.55;;;21.20;99.90;;;;;;6136241;23;20013;-83
2022/07/25 00:34:44;;;;;;;7.18;5.35;;;21.20;99.90;;;;;;6135813;23;20013;-83
2022/07/25 00:37:10;;;;;;;;;;;21.20;99.90;;;;;;6136676;23;20005;-82
2022/07/25 00:39:36;;;;;;;9.10;6.35;;;21.20;99.90;;;;;;6161331;23;19908;-81
2022/07/25 00:42:02;;;;;;;10.43;5.93;;;21.10;99.90;;;;;;6112470;23;20005;-82
2022/07/25 00:44:28;;;;;;;;;;;21.10;99.90;;;;;;6137435;23;20011;-82
2022/07/25 00:46:55;;;;;;;7.65;5.60;;;21.10;99.90;;;;;;6136818;23;19908;-81
2022/07/25 00:49:22;;;;;;;8.65;5.80;;;21.10;99.90;;;;;;6136217;23;20075;-82
2022/07/25 00:51:48;;;;;;;8.80;6.30;;;21.00;99.90;;;;;;6130989;23;20013;-81
2022/07/25 00:54:14;;;;;;;10.25;6.13;;;21.00;99.90;;;;;;6156421;23;20020;-81
2022/07/25 00:56:41;;;;;;;8.55;6.25;;;21.00;99.90;;;;;;6131515;23;20009;-81
2022/07/25 00:59:07;;;;;;;9.13;5.90;;;21.00;99.90;;;;;;6131539;23;20009;-80
2022/07/25 01:01:34;;;;;;;7.43;6.30;;;21.00;99.90;;;;;;6131534;23;20002;-81
2022/07/25 01:04:00;;;;;;;8.48;7.03;;;21.10;99.90;;;;;;6131768;23;20012;-81
2022/07/25 01:06:28;;;;;;;;;;;21.00;99.90;;;;;;6130771;23;20028;-81
2022/07/25 01:08:54;;;;;;;10.68;7.20;;;20.90;99.90;;;;;;6131112;23;19908;-80
2022/07/25 01:11:24;;;;;;;9.32;7.13;;;20.80;99.90;;;;;;6131058;23;20010;-81
2022/07/25 01:13:50;;;;;;;11.98;7.90;;;20.80;99.90;;;;;;6130105;23;20009;-82
2022/07/25 01:16:17;;;;;;;8.75;7.53;;;20.70;99.90;;;;;;6131301;23;20028;-81
2022/07/25 01:18:43;;;;;;;11.63;7.80;;;20.60;99.90;;;;;;6131810;23;20085;-80
2022/07/25 01:21:11;;;;;;;9.60;7.47;;;20.60;99.90;;;;;;6131541;23;20012;-82
2022/07/25 01:23:40;;;;;;;16.23;8.57;;;20.60;99.90;;;;;;6132284;23;20044;-81
2022/07/25 01:26:06;;;;;;;12.73;8.27;;;20.60;99.90;;;;;;6155144;23;20013;-81
2022/07/25 01:28:31;;;;;;;10.10;7.50;;;20.60;99.90;;;;;;6131424;23;20376;-82
2022/07/25 01:30:57;;;;;;;9.50;7.85;;;20.60;99.90;;;;;;6130728;23;20013;-82
2022/07/25 01:33:23;;;;;;;;;;;20.50;99.90;;;;;;6131308;23;20018;-82
2022/07/25 01:35:49;;;;;;;11.32;6.97;;;20.50;99.90;;;;;;6130341;23;20003;-80
2022/07/25 01:38:15;;;;;;;10.93;7.15;;;20.50;99.90;;;;;;6130590;23;20435;-80
2022/07/25 01:40:42;;;;;;;;;;;20.50;99.90;;;;;;6155746;23;20364;-81
2022/07/25 01:43:09;;;;;;;10.98;7.15;;;20.60;99.90;;;;;;6154222;23;19959;-81
2022/07/25 01:45:38;;;;;;;9.73;6.95;;;20.50;99.90;;;;;;6130270;23;20015;-80
2022/07/25 01:48:03;;;;;;;8.35;6.53;;;20.60;99.90;;;;;;6130928;23;20041;-81
2022/07/25 01:50:29;;;;;;;11.20;7.13;;;20.60;99.90;;;;;;6130699;23;20013;-81
2022/07/25 01:52:55;;;;;;;10.30;7.60;;;20.60;99.90;;;;;;6126006;23;20025;-81
2022/07/25 01:55:21;;;;;;;9.57;6.80;;;20.60;99.90;;;;;;6104331;23;20017;-83
2022/07/25 01:57:47;;;;;;;8.27;6.07;;;20.60;99.90;;;;;;6107278;23;20016;-81
2022/07/25 02:00:14;;;;;;;10.50;6.88;;;20.70;99.90;;;;;;6110282;23;20012;-80
2022/07/25 02:02:41;;;;;;;23.42;6.45;;;20.70;99.90;;;;;;6108927;23;20088;-80
2022/07/25 02:05:08;;;;;;;9.27;6.30;;;20.70;99.90;;;;;;6109870;23;20090;-80
2022/07/25 02:07:37;;;;;;;11.63;6.85;;;20.70;99.90;;;;;;6107253;23;20019;-81
2022/07/25 02:10:05;;;;;;;16.38;7.22;;;20.80;99.90;;;;;;6105485;23;20009;-81
2022/07/25 02:12:31;;;;;;;10.55;7.47;;;20.80;99.90;;;;;;6103865;23;20107;-81
2022/07/25 02:14:57;;;;;;;15.80;7.68;;;20.70;99.90;;;;;;6104967;23;20010;-82
2022/07/25 02:17:23;;;;;;;9.32;7.15;;;20.80;99.90;;;;;;6105191;23;20056;-81
2022/07/25 02:19:49;;;;;;;9.18;6.50;;;20.80;99.90;;;;;;6105395;23;20002;-81
2022/07/25 02:22:15;;;;;;;;;;;20.70;99.90;;;;;;6105134;23;20009;-82
2022/07/25 02:24:40;;;;;;;13.77;6.63;;;20.70;99.90;;;;;;6104558;23;19915;-81
2022/07/25 02:27:06;;;;;;;11.82;7.45;;;20.70;99.90;;;;;;6105854;23;20140;-80
2022/07/25 02:29:33;;;;;;;11.38;6.90;;;20.70;99.90;;;;;;6106378;23;20013;-80
2022/07/25 02:31:58;;;;;;;12.07;6.88;;;20.60;99.90;;;;;;6106670;23;20093;-81
2022/07/25 02:34:24;;;;;;;8.98;7.32;;;20.60;99.90;;;;;;6106459;23;20041;-83
2022/07/25 02:36:50;;;;;;;10.20;7.07;;;20.50;99.90;;;;;;6106477;23;20045;-80
2022/07/25 02:39:16;;;;;;;14.70;7.07;;;20.50;99.90;;;;;;6105471;23;20040;-83
2022/07/25 02:41:43;;;;;;;12.45;7.65;;;20.40;99.90;;;;;;6131006;23;20016;-81
2022/07/25 02:44:08;;;;;;;12.20;7.53;;;20.40;99.90;;;;;;6105627;23;20080;-80
2022/07/25 02:46:34;;;;;;;13.02;7.75;;;20.40;99.90;;;;;;6106787;23;20062;-81
2022/07/25 02:49:01;;;;;;;15.00;7.40;;;20.40;99.90;;;;;;6105873;23;20013;-81
2022/07/25 02:51:26;;;;;;;14.27;6.40;;;20.40;99.90;;;;;;6113595;23;20371;-81
2022/07/25 02:53:52;;;;;;;11.73;7.50;;;20.40;99.90;;;;;;6135395;23;20067;-81
2022/07/25 02:56:18;;;;;;;10.68;6.85;;;20.40;99.90;;;;;;6135766;23;20044;-82
2022/07/25 02:58:44;;;;;;;10.07;7.20;;;20.30;99.90;;;;;;6135686;23;20067;-82
2022/07/25 03:01:10;;;;;;;14.30;6.90;;;20.40;99.90;;;;;;6136013;23;20048;-80
2022/07/25 03:03:35;;;;;;;;;;;20.40;99.90;;;;;;6136372;23;20040;-81
2022/07/25 03:06:01;;;;;;;9.57;6.43;;;20.30;99.90;;;;;;6135909;23;19915;-81
2022/07/25 03:08:27;;;;;;;11.85;7.00;;;20.30;99.90;;;;;;6135786;23;20140;-81
2022/07/25 03:10:53;;;;;;;9.40;7.53;;;20.30;99.90;;;;;;6135167;23;20075;-80
2022/07/25 03:13:19;;;;;;;13.13;7.45;;;20.30;99.90;;;;;;6160194;23;20020;-82
2022/07/25 03:15:47;;;;;;;9.95;6.95;;;20.30;99.90;;;;;;6135727;23;20020;-83
2022/07/25 03:18:13;;;;;;;11.02;6.57;;;20.30;99.90;;;;;;6135820;23;20009;-82
2022/07/25 03:20:38;;;;;;;10.13;6.63;;;20.20;99.90;;;;;;6135305;23;20005;-81
2022/07/25 03:23:04;;;;;;;8.23;6.15;;;20.20;99.90;;;;;;6135882;23;20089;-81
2022/07/25 03:25:30;;;;;;;12.23;6.80;;;20.20;99.90;;;;;;6135349;23;20331;-82
2022/07/25 03:27:59;;;;;;;10.07;6.68;;;20.20;99.90;;;;;;6136340;23;20052;-81
2022/07/25 03:30:24;;;;;;;16.77;7.00;;;20.10;99.90;;;;;;6135325;23;20332;-81
2022/07/25 03:32:50;;;;;;;9.98;6.57;;;20.20;99.90;;;;;;6135708;23;20048;-82
2022/07/25 03:35:16;;;;;;;9.25;7.43;;;20.20;99.90;;;;;;6136575;23;20115;-81
2022/07/25 03:37:42;;;;;;;8.63;6.28;;;20.10;99.90;;;;;;6140476;23;20005;-80
2022/07/25 03:40:08;;;;;;;7.30;5.57;;;20.10;99.90;;;;;;6164799;23;20009;-81
2022/07/25 03:42:36;;;;;;;;;;;20.10;99.90;;;;;;6139097;23;20320;-81
2022/07/25 03:45:02;;;;;;;7.93;5.70;;;20.10;99.90;;;;;;6138405;23;20418;-81
2022/07/25 03:47:28;;;;;;;;;;;20.00;99.90;;;;;;6138719;23;20015;-81
2022/07/25 03:49:56;;;;;;;13.18;7.57;;;20.00;99.90;;;;;;6137288;23;20272;-81
2022/07/25 03:52:22;;;;;;;11.20;8.45;;;20.00;99.90;;;;;;6136669;23;20044;-80
2022/07/25 03:54:48;;;;;;;10.35;7.85;;;19.90;99.90;;;;;;6136956;23;20012;-80
2022/07/25 03:57:14;;;;;;;14.40;8.30;;;19.90;99.90;;;;;;6136644;23;20005;-82
2022/07/25 03:59:39;;;;;;;13.73;8.05;;;19.90;99.90;;;;;;6161024;23;20009;-82
2022/07/25 04:02:07;;;;;;;13.82;9.23;;;19.80;99.90;;;;;;6136885;23;20048;-79
2022/07/25 04:04:33;;;;;;;12.48;8.10;;;19.80;99.90;;;;;;6138025;23;20514;-81
2022/07/25 04:06:59;;;;;;;17.45;8.98;;;19.70;99.90;;;;;;6136334;23;20013;-80
2022/07/25 04:09:25;;;;;;;13.93;8.70;;;19.70;99.90;;;;;;6136983;23;20428;-83
2022/07/25 04:11:51;;;;;;;11.70;8.43;;;19.70;99.90;;;;;;6136474;23;20088;-81
2022/07/25 04:14:16;;;;;;;11.35;7.68;;;19.70;99.90;;;;;;6135855;23;20009;-81
2022/07/25 04:16:42;;;;;;;12.32;8.30;;;19.70;99.90;;;;;;6136151;23;20009;-81
2022/07/25 04:19:08;;;;;;;13.60;8.38;;;19.70;99.90;;;;;;6136920;23;20037;-80
2022/07/25 04:21:34;;;;;;;11.02;7.78;;;19.70;99.90;;;;;;6137224;23;20009;-82
2022/07/25 04:24:00;;;;;;;11.30;8.60;;;19.80;99.90;;;;;;6136756;23;20084;-81
2022/07/25 04:26:25;;;;;;;12.77;8.73;;;19.80;99.90;;;;;;6161136;23;20064;-82
2022/07/25 04:28:51;;;;;;;12.30;8.60;;;19.80;99.90;;;;;;6160411;23;20301;-81
2022/07/25 04:31:20;;;;;;;16.52;9.15;;;19.70;99.90;;;;;;6135475;23;20009;-83
2022/07/25 04:33:46;;;;;;;11.93;8.52;;;19.80;99.90;;;;;;6160638;23;20013;-80
2022/07/25 04:36:12;;;;;;;11.80;9.25;;;19.80;99.90;;;;;;6136912;23;20147;-80
2022/07/25 04:38:37;;;;;;;12.60;8.77;;;19.80;99.90;;;;;;6136781;23;20009;-82
2022/07/25 04:41:06;;;;;;;15.13;9.02;;;19.90;99.90;;;;;;6137303;23;20063;-81
2022/07/25 04:43:31;;;;;;;12.77;9.23;;;19.90;99.90;;;;;;6161114;23;20009;-81
2022/07/25 04:45:58;;;;;;;15.10;9.35;;;19.90;99.90;;;;;;6161262;23;20352;-82
2022/07/25 04:48:24;;;;;;;12.68;8.70;;;19.90;99.90;;;;;;6160863;23;20013;-83
2022/07/25 04:50:49;;;;;;;13.35;9.40;;;19.90;99.90;;;;;;6136353;23;20052;-81
2022/07/25 04:53:15;;;;;;;12.00;9.20;;;19.90;99.90;;;;;;6136832;23;20020;-81
2022/07/25 04:55:41;;;;;;;13.35;10.20;;;19.90;99.90;;;;;;6136189;23;20363;-82
2022/07/25 04:58:07;;;;;;;13.20;9.23;;;19.90;99.90;;;;;;6136199;23;20088;-82
2022/07/25 05:00:32;;;;;;;15.40;9.13;;;20.00;99.90;;;;;;6160893;23;20498;-81
2022/07/25 05:02:59;;;;;;;13.25;9.98;;;20.00;99.90;;;;;;6161574;23;20039;-81
2022/07/25 05:05:24;;;;;;;14.20;9.73;;;20.00;99.90;;;;;;6136158;23;20265;-81
2022/07/25 05:07:56;;;;;;;19.67;10.10;;;20.10;99.90;;;;;;6161350;23;20013;-81
2022/07/25 05:10:22;;;;;;;12.65;9.27;;;20.10;99.90;;;;;;6161044;23;20020;-81
2022/07/25 05:12:50;;;;;;;21.38;10.55;;;20.10;99.90;;;;;;6161161;23;20009;-81
2022/07/25 05:15:19;;;;;;;12.48;9.98;;;20.10;99.90;;;;;;6114576;23;20016;-82
2022/07/25 05:17:44;;;;;;;11.73;9.60;;;20.10;99.90;;;;;;6139866;23;20008;-70
2022/07/25 05:20:11;;;;;;;15.23;10.15;;;20.10;99.90;;;;;;6135588;23;20009;-71
2022/07/25 05:22:37;;;;;;;14.88;11.00;;;20.10;99.90;;;;;;6160140;23;20428;-73
2022/07/25 05:25:06;;;;;;;17.02;10.65;;;20.10;99.90;;;;;;6160329;23;20024;-72
2022/07/25 05:27:31;;;;;;;15.15;11.23;;;20.10;99.90;;;;;;6160398;23;20446;-71
2022/07/25 05:29:57;;;;;;;14.02;11.13;;;20.10;99.90;;;;;;6160082;23;20044;-68
2022/07/25 05:32:23;;;;;;;16.23;11.13;;;20.20;99.90;;;;;;6160155;23;20097;-68
2022/07/25 05:34:48;;;;;;;15.38;11.48;;;20.30;99.90;;;;;;6185941;23;20008;-68
2022/07/25 05:37:15;;;;;;;13.88;11.23;;;20.40;99.90;;;;;;6159326;23;20013;-69
2022/07/25 05:39:40;;;;;;;14.98;11.13;;;20.60;99.90;;;;;;6184362;23;20013;-70
2022/07/25 05:42:06;;;;;;;14.55;11.00;;;20.80;99.90;;;;;;6135126;23;20020;-70
2022/07/25 05:44:32;;;;;;;14.73;10.18;;;20.90;99.90;;;;;;6159392;23;20019;-69
2022/07/25 05:46:58;;;;;;;16.08;11.57;;;21.00;99.90;;;;;;6159280;23;20013;-69
2022/07/25 05:49:24;;;;;;;15.48;10.98;;;21.10;99.90;;;;;;6135256;23;20020;-69
2022/07/25 05:51:49;;;;;;;12.10;10.35;;;21.20;99.90;;;;;;6135704;23;20013;-68
2022/07/25 05:54:15;;;;;;;18.52;11.00;;;21.20;99.90;;;;;;6157961;23;20094;-69
2022/07/25 05:56:41;;;;;;;13.68;10.27;;;21.30;99.90;;;;;;6134312;23;20013;-70
2022/07/25 05:59:10;;;;;;;16.35;10.77;;;21.30;99.90;;;;;;6158651;23;20017;-68
2022/07/25 06:01:36;;;;;;;20.60;11.60;;;21.40;99.90;;;;;;6134646;23;20052;-67
2022/07/25 06:04:01;;;;;;;14.60;10.38;;;21.40;99.90;;;;;;6159682;23;20017;-69
2022/07/25 06:06:31;;;;;;;14.82;11.35;;;21.40;99.90;;;;;;6159656;23;20043;-67
2022/07/25 06:08:57;;;;;;;14.85;10.60;;;21.50;99.90;;;;;;6136202;23;20013;-70
2022/07/25 06:11:25;;;;;;;14.73;10.50;;;21.70;99.90;;;;;;6186456;23;20051;-71
2022/07/25 06:13:51;;;;;;;15.52;10.55;;;21.80;99.90;;;;;;6160035;23;20051;-68
2022/07/25 06:16:17;;;;;;;16.02;10.20;;;21.80;99.90;;;;;;6111103;23;20492;-69
2022/07/25 06:18:42;;;;;;;;;;;21.80;99.90;;;;;;6160176;23;20020;-70
2022/07/25 06:21:08;;;;;;;11.30;8.90;;;21.90;99.90;;;;;;6186200;23;19950;-68
2022/07/25 06:23:34;;;;;;;;;;;22.00;99.90;;;;;;6135869;23;20013;-69
2022/07/25 06:25:59;;;;;;;19.15;9.98;;;22.10;99.90;;;;;;6159955;23;20251;-67
2022/07/25 06:28:27;;;;;;;16.23;9.45;;;22.10;99.90;;;;;;6135687;23;20036;-67
2022/07/25 06:30:53;;;;;;;16.85;8.40;;;22.20;99.90;;;;;;6159486;23;20432;-70
2022/07/25 06:33:18;;;;;;;16.00;8.30;;;22.20;99.90;;;;;;6159589;23;20013;-70
2022/07/25 06:35:44;;;;;;;;;;;22.30;99.90;;;;;;6160114;23;20024;-69
2022/07/25 06:38:10;;;;;;;12.50;6.75;;;22.40;99.90;;;;;;6159752;23;19919;-70
2022/07/25 06:40:35;;;;;;;16.90;6.00;;;22.60;99.90;;;;;;6159762;23;20013;-69
2022/07/25 06:43:01;;;;;;;7.78;5.13;;;22.70;99.90;;;;;;6159888;23;20495;-69
2022/07/25 06:45:27;;;;;;;10.80;4.45;;;22.80;99.90;;;;;;6159472;23;20020;-68
2022/07/25 06:47:53;;;;;;;14.15;4.80;;;23.00;99.90;;;;;;6135289;23;20021;-70
2022/07/25 06:50:18;;;;;;;10.32;3.97;;;23.20;99.90;;;;;;6159639;23;20041;-70
2022/07/25 06:52:44;;;;;;;;;;;23.40;99.90;;;;;;6135125;23;20024;-68
2022/07/25 06:55:12;;;;;;;6.97;2.92;;;23.40;99.90;;;;;;6159645;23;19919;-69
2022/07/25 07:04:50;;;;;;;7.72;2.35;;;23.40;99.90;;;;;;6157706;23;20025;-80
2022/07/25 07:07:16;;;;;;;;;;;23.20;99.90;;;;;;6136175;23;20009;-78
2022/07/25 07:09:42;;;;;;;5.78;2.35;;;23.00;99.90;;;;;;6137442;23;20299;-79
2022/07/25 07:12:12;;;;;;;7.22;2.70;;;22.90;99.90;;;;;;6163058;23;20005;-81
2022/07/25 07:14:43;;;;;;;9.32;2.67;;;22.80;99.90;;;;;;6137404;23;20434;-82
2022/07/25 07:17:08;;;;;;;16.13;2.80;;;22.60;99.90;;;;;;6136932;23;20009;-81
2022/07/25 07:19:34;;;;;;;;;;;22.40;99.90;;;;;;6137827;23;20092;-81
2022/07/25 07:22:03;;;;;;;4.25;2.40;;;22.40;99.90;;;;;;6137976;23;19963;-82
2022/07/25 07:24:31;;;;;;;5.15;2.40;;;22.30;99.90;;;;;;6138039;23;20012;-81
2022/07/25 07:27:03;;;;;;;;;;;22.30;99.90;;;;;;6137769;23;20013;-81
2022/07/25 07:32:15;;;;;;;11.20;1.92;;;22.00;99.90;;;;;;6163095;23;20309;-80
2022/07/25 07:35:01;;;;;;;9.93;2.10;;;21.90;99.90;;;;;;6138443;23;20013;-79
2022/07/25 07:37:35;;;;;;;6.70;2.10;;;21.90;99.90;;;;;;6113926;23;20013;-82
2022/07/25 07:40:06;;;;;;;3.83;2.03;;;21.80;99.90;;;;;;6136891;23;20005;-82
2022/07/25 07:46:50;;;;;;;4.47;1.90;;;21.70;99.90;;;;;;6187867;23;20047;-75
2022/07/25 07:56:54;;;;;;;4.38;2.10;;;21.70;99.90;;;;;;6185794;23;20150;-71
2022/07/25 10:18:48;;;;;;;7.95;1.98;;;23.90;99.90;;;;;;6154038;23;20078;-78
2022/07/25 10:21:15;;;;;;;12.23;2.53;;;23.90;99.90;;;;;;6130168;23;20044;-79
2022/07/25 10:23:45;;;;;;;8.23;2.92;;;24.00;99.90;;;;;;6137366;23;20013;-78
2022/07/25 10:26:15;;;;;;;13.63;2.60;;;24.00;99.90;;;;;;6136149;23;20021;-75
2022/07/25 10:28:49;;;;;;;11.93;2.25;;;24.10;99.90;;;;;;6160605;23;20083;-78
2022/07/25 10:31:33;;;;;;;11.45;2.17;;;24.20;99.90;;;;;;6136380;23;20079;-80
2022/07/25 10:34:05;;;;;;;9.13;2.13;;;24.30;99.90;;;;;;6162027;23;20017;-79
2022/07/25 10:36:46;;;;;;;15.52;2.42;;;24.20;99.90;;;;;;6135489;23;20381;-80
2022/07/25 10:39:15;;;;;;;11.52;2.35;;;24.10;99.90;;;;;;6160036;23;20013;-80
2022/07/25 10:41:43;;;;;;;8.98;2.08;;;24.00;99.90;;;;;;6135475;23;20428;-79
2022/07/25 10:44:16;;;;;;;6.72;1.77;;;23.80;99.90;;;;;;6161666;23;20321;-77
2022/07/25 10:46:43;;;;;;;8.38;2.17;;;23.70;99.90;;;;;;6162085;23;20091;-78
2022/07/25 10:49:19;;;;;;;7.53;2.33;;;23.60;99.90;;;;;;6137323;23;20341;-75
2022/07/25 10:52:02;;;;;;;11.85;2.25;;;23.50;99.90;;;;;;6163233;23;20020;-77
2022/07/25 10:54:34;;;;;;;9.50;2.22;;;23.60;99.90;;;;;;6161775;23;20017;-78
2022/07/25 10:57:04;;;;;;;13.40;2.58;;;23.60;99.90;;;;;;6161979;23;20009;-80
2022/07/25 10:59:34;;;;;;;11.68;2.58;;;23.60;99.90;;;;;;6138503;23;20084;-77
2022/07/25 11:02:00;;;;;;;10.13;2.38;;;23.60;99.90;;;;;;6137364;23;20096;-76
2022/07/25 11:04:26;;;;;;;13.07;2.60;;;23.50;99.90;;;;;;6161963;23;20344;-76
2022/07/25 11:06:52;;;;;;;8.70;2.90;;;23.50;99.90;;;;;;6110525;23;20344;-78
2022/07/25 11:09:23;;;;;;;;;;;23.50;99.90;;;;;;6159606;23;20017;-77
2022/07/25 11:11:50;;;;;;;8.73;2.50;;;23.40;99.90;;;;;;6160500;23;19939;-76
2022/07/25 11:14:42;;;;;;;11.02;2.58;;;23.50;99.90;;;;;;6135822;23;20025;-78
2022/07/25 11:17:21;;;;;;;10.10;2.50;;;23.70;99.90;;;;;;6130450;23;20051;-78
2022/07/25 11:20:06;;;;;;;12.90;2.35;;;23.80;99.90;;;;;;6136154;23;20028;-79
2022/07/25 11:22:35;;;;;;;12.48;2.40;;;23.90;99.90;;;;;;6137566;23;20032;-77
2022/07/25 11:25:10;;;;;;;10.77;2.03;;;23.90;99.90;;;;;;6135617;23;20088;-77
2022/07/25 11:28:07;;;;;;;5.85;1.85;;;24.20;99.90;;;;;;6160628;23;20017;-78
2022/07/25 11:30:35;;;;;;;8.30;2.00;;;24.40;99.90;;;;;;6160522;23;20017;-79
2022/07/25 11:33:01;;;;;;;10.75;2.60;;;24.40;99.90;;;;;;6135903;23;20013;-81
2022/07/25 11:35:31;;;;;;;;;;;24.30;99.90;;;;;;6112310;23;20051;-77
2022/07/25 11:38:00;;;;;;;9.68;2.55;;;24.30;99.90;;;;;;6135338;23;19923;-73
2022/07/25 11:40:53;;;;;;;14.98;2.80;;;24.30;99.90;;;;;;6159901;23;20380;-77
2022/07/25 11:43:28;;;;;;;8.13;2.28;;;24.60;99.90;;;;;;6136461;23;20339;-73
2022/07/25 11:46:00;;;;;;;9.27;2.30;;;24.50;99.90;;;;;;6160310;23;20040;-81
2022/07/25 11:48:34;;;;;;;9.13;2.00;;;24.40;99.80;;;;;;6135633;23;20017;-80
2022/07/25 11:51:15;;;;;;;11.23;2.45;;;24.40;99.70;;;;;;6160489;23;20020;-80
2022/07/25 11:53:47;;;;;;;11.07;2.35;;;24.60;99.90;;;;;;6134338;23;20406;-75
2022/07/25 11:56:20;;;;;;;10.27;2.45;;;24.80;99.60;;;;;;6135173;23;20017;-78
2022/07/25 11:58:57;;;;;;;13.02;2.90;;;24.90;99.40;;;;;;6136551;23;20274;-78
2022/07/25 12:01:24;;;;;;;16.17;2.53;;;24.90;99.00;;;;;;6111297;23;20344;-75
2022/07/25 12:03:52;;;;;;;12.95;2.22;;;24.80;99.00;;;;;;6135479;23;20088;-79
2022/07/25 12:06:18;;;;;;;9.38;2.60;;;24.70;98.80;;;;;;6159925;23;20463;-77
2022/07/25 12:08:44;;;;;;;11.15;1.95;;;24.70;98.60;;;;;;6135567;23;20017;-75
2022/07/25 12:11:21;;;;;;;8.15;2.20;;;24.80;98.40;;;;;;6159846;23;20016;-75
2022/07/25 12:13:48;;;;;;;10.80;2.40;;;25.20;97.50;;;;;;6159724;23;20020;-77
2022/07/25 12:16:15;;;;;;;14.75;2.80;;;25.00;97.80;;;;;;6135319;23;20025;-78
2022/07/25 12:18:41;;;;;;;8.93;2.42;;;25.00;98.20;;;;;;6135384;23;20013;-75
2022/07/25 12:21:06;;;;;;;8.10;2.20;;;25.10;98.50;;;;;;6159196;23;20075;-75
2022/07/25 12:23:33;;;;;;;10.30;2.50;;;25.20;98.20;;;;;;6134127;23;20341;-77
2022/07/25 12:25:59;;;;;;;14.95;2.50;;;25.10;97.90;;;;;;6159195;23;20017;-75
2022/07/25 12:28:26;;;;;;;11.70;2.67;;;25.00;98.40;;;;;;6159238;23;20436;-76
2022/07/25 12:30:52;;;;;;;13.02;2.63;;;25.10;98.30;;;;;;6134630;23;20428;-76
2022/07/25 12:33:18;;;;;;;10.60;2.67;;;25.40;98.40;;;;;;6134375;23;20052;-75
2022/07/25 12:35:44;;;;;;;11.57;2.53;;;25.70;97.60;;;;;;6159174;23;20457;-77
2022/07/25 12:38:10;;;;;;;11.88;2.60;;;25.70;97.00;;;;;;6134185;23;20344;-77
2022/07/25 12:40:36;;;;;;;10.75;2.40;;;25.60;96.50;;;;;;6134635;23;20013;-76
2022/07/25 12:43:03;;;;;;;10.25;2.83;;;25.60;96.80;;;;;;6134197;23;20020;-78
2022/07/25 12:45:31;;;;;;;13.05;3.25;;;25.40;96.70;;;;;;6134212;23;20063;-76
2022/07/25 12:47:57;;;;;;;9.70;2.30;;;25.60;97.00;;;;;;6134166;23;20028;-78
2022/07/25 12:50:24;;;;;;;12.35;2.78;;;25.60;96.10;;;;;;6159136;23;20009;-77
2022/07/25 12:52:50;;;;;;;11.40;2.70;;;25.60;96.80;;;;;;6134262;23;20321;-79
2022/07/25 12:55:19;;;;;;;12.38;3.15;;;25.60;96.50;;;;;;6134720;23;20047;-75
2022/07/25 12:57:46;;;;;;;10.93;2.50;;;25.60;96.50;;;;;;6160012;23;20462;-77
2022/07/25 13:00:15;;;;;;;11.10;2.28;;;25.80;96.40;;;;;;6160031;23;20357;-75
2022/07/25 13:02:41;;;;;;;18.17;2.90;;;25.60;96.80;;;;;;6160025;23;20017;-77
2022/07/25 13:05:07;;;;;;;14.38;2.78;;;25.60;96.80;;;;;;6135703;23;20087;-78
2022/07/25 13:07:33;;;;;;;12.93;2.83;;;25.50;97.00;;;;;;6135858;23;20032;-79
2022/07/25 13:09:59;;;;;;;14.70;2.72;;;25.40;96.80;;;;;;6135925;23;20020;-76
2022/07/25 13:12:25;;;;;;;14.90;2.90;;;25.60;96.80;;;;;;6135391;23;20028;-77
2022/07/25 13:14:51;;;;;;;25.70;3.10;;;25.40;96.70;;;;;;6160309;23;20017;-77
2022/07/25 13:17:17;;;;;;;11.82;2.40;;;25.30;96.10;;;;;;6159852;23;20100;-78
2022/07/25 13:19:43;;;;;;;13.90;2.78;;;25.20;96.10;;;;;;6159718;23;20017;-79
2022/07/25 13:22:08;;;;;;;9.50;2.72;;;25.20;96.10;;;;;;6160173;23;20028;-78
2022/07/25 13:24:34;;;;;;;15.02;2.92;;;25.30;96.60;;;;;;6159998;23;20017;-75
2022/07/25 13:27:04;;;;;;;13.95;3.10;;;25.20;96.60;;;;;;6186451;23;20502;-79
2022/07/25 13:29:30;;;;;;;13.52;3.03;;;25.00;96.40;;;;;;6159774;23;20024;-77
2022/07/25 13:31:55;;;;;;;12.80;2.83;;;25.00;96.60;;;;;;6159595;23;20009;-72
2022/07/25 13:34:21;;;;;;;13.57;3.00;;;25.10;96.80;;;;;;6160232;23;20064;-67
2022/07/25 13:36:46;;;;;;;13.05;2.80;;;25.00;96.30;;;;;;6160045;23;20024;-68
2022/07/25 13:39:13;;;;;;;18.08;3.67;;;25.00;96.50;;;;;;6158579;23;20021;-70
2022/07/25 13:41:38;;;;;;;11.02;3.00;;;24.90;96.00;;;;;;6157996;23;20104;-70
2022/07/25 13:44:09;;;;;;;12.38;2.75;;;25.20;96.40;;;;;;6184701;23;20053;-67
2022/07/25 13:46:35;;;;;;;17.38;3.35;;;25.20;95.80;;;;;;6158500;23;20017;-67
2022/07/25 13:49:01;;;;;;;16.20;3.80;;;25.10;95.90;;;;;;6158295;23;20462;-69
2022/07/25 13:51:26;;;;;;;16.02;3.20;;;25.00;96.30;;;;;;6109392;23;20031;-70
2022/07/25 13:53:52;;;;;;;15.30;3.50;;;25.10;96.20;;;;;;6158083;23;20021;-68
2022/07/25 13:56:18;;;;;;;12.50;3.38;;;25.00;95.50;;;;;;6133866;23;20032;-73
2022/07/25 13:58:43;;;;;;;11.77;3.13;;;24.90;95.60;;;;;;6157971;23;20475;-71
2022/07/25 14:01:11;;;;;;;12.10;2.53;;;24.70;95.50;;;;;;6184578;23;20017;-71
2022/07/25 14:03:37;;;;;;;13.75;2.80;;;24.80;95.90;;;;;;6133752;23;20025;-71
2022/07/25 14:06:04;;;;;;;16.80;3.03;;;24.70;96.60;;;;;;6133808;23;20108;-72
2022/07/25 14:08:30;;;;;;;13.30;3.30;;;25.00;97.00;;;;;;6157431;23;20036;-72
2022/07/25 14:10:55;;;;;;;13.57;2.47;;;25.00;96.40;;;;;;6158321;23;20024;-73
2022/07/25 14:13:21;;;;;;;17.27;2.80;;;24.90;96.10;;;;;;6157688;23;20031;-71
2022/07/25 14:15:47;;;;;;;12.68;2.75;;;24.70;95.90;;;;;;6157987;23;20075;-73
2022/07/25 14:18:13;;;;;;;14.98;2.80;;;24.50;96.20;;;;;;6157211;23;20025;-72
2022/07/25 14:20:39;;;;;;;14.88;2.85;;;24.70;96.70;;;;;;6157405;23;20052;-74
2022/07/25 14:23:04;;;;;;;14.75;2.88;;;24.90;96.60;;;;;;6158054;23;20393;-73
2022/07/25 14:25:30;;;;;;;13.70;2.38;;;24.60;96.20;;;;;;6133723;23;20031;-72
2022/07/25 14:27:58;;;;;;;12.73;2.83;;;24.60;96.20;;;;;;6157948;23;20440;-70
2022/07/25 14:30:24;;;;;;;11.38;2.60;;;24.50;96.00;;;;;;6159211;23;20440;-71
2022/07/25 14:32:50;;;;;;;13.27;2.38;;;24.50;96.50;;;;;;6159249;23;20071;-71
2022/07/25 14:35:15;;;;;;;17.48;3.17;;;24.50;96.10;;;;;;6185306;23;20017;-69
2022/07/25 14:37:41;;;;;;;11.73;3.22;;;24.40;96.20;;;;;;6131273;23;20056;-69
2022/07/25 14:40:09;;;;;;;9.90;2.45;;;24.30;96.50;;;;;;6133867;23;20025;-68
2022/07/25 14:42:37;;;;;;;15.45;2.92;;;24.50;96.30;;;;;;6158603;23;20025;-70
2022/07/25 14:45:04;;;;;;;10.13;2.35;;;24.60;95.70;;;;;;6132649;23;20013;-70
2022/07/25 14:47:29;;;;;;;10.57;2.53;;;25.00;95.00;;;;;;6133301;23;20024;-70
2022/07/25 14:49:55;;;;;;;15.07;3.30;;;25.30;94.00;;;;;;6158148;23;20025;-68
2022/07/25 14:52:22;;;;;;;10.70;2.25;;;25.10;94.10;;;;;;6157729;23;20021;-77
2022/07/25 14:54:48;;;;;;;9.93;2.42;;;25.20;93.90;;;;;;6157542;23;20013;-70
2022/07/25 14:57:14;;;;;;;8.63;2.20;;;25.00;93.70;;;;;;6157940;23;20063;-69
2022/07/25 14:59:40;;;;;;;8.90;1.98;;;24.80;93.30;;;;;;6158259;23;20108;-68
2022/07/25 15:02:06;;;;;;;10.88;1.73;;;24.80;93.40;;;;;;6184312;23;20028;-71
2022/07/25 15:04:31;;;;;;;13.07;2.00;;;24.70;93.70;;;;;;6184004;23;20016;-76
2022/07/25 15:06:57;;;;;;;11.73;1.85;;;24.60;93.80;;;;;;6157912;23;20017;-72
2022/07/25 15:09:23;;;;;;;9.55;2.17;;;24.70;94.00;;;;;;6158126;23;20028;-76
2022/07/25 15:11:49;;;;;;;10.40;2.40;;;24.60;93.90;;;;;;6134154;23;20458;-73
2022/07/25 15:14:14;;;;;;;12.38;2.13;;;24.50;93.80;;;;;;6158102;23;20032;-72
2022/07/25 15:16:41;;;;;;;9.73;2.50;;;24.50;94.00;;;;;;6157701;23;20328;-74
2022/07/25 15:19:06;;;;;;;17.83;2.90;;;24.50;94.30;;;;;;6133147;23;20395;-71
2022/07/25 15:21:33;;;;;;;13.32;2.63;;;24.20;95.00;;;;;;6133767;23;20052;-71
2022/07/25 15:23:59;;;;;;;15.68;3.17;;;24.00;95.20;;;;;;6157904;23;20320;-75
2022/07/25 15:26:25;;;;;;;11.68;2.40;;;24.10;96.20;;;;;;6157965;23;20077;-72